createdAt,value
2022-08-07T00:00:25.449Z,44.36
2022-08-07T00:02:53.829Z,44.47
2022-08-07T00:05:23.800Z,44.63
2022-08-07T00:07:59.865Z,44.46
2022-08-07T00:10:30.703Z,44.27
2022-08-07T00:13:03.215Z,44.41
2022-08-07T00:15:50.835Z,44.35
2022-08-07T00:18:24.074Z,44.14
2022-08-07T00:20:54.039Z,44.40
2022-08-07T00:23:23.607Z,44.21
2022-08-07T00:26:00.262Z,45.17
2022-08-07T00:28:33.319Z,44.96
2022-08-07T00:31:06.206Z,45.27
2022-08-07T00:33:41.515Z,45.63
2022-08-07T00:36:10.583Z,46.30
2022-08-07T00:38:41.473Z,46.78
2022-08-07T00:41:14.747Z,47.23
2022-08-07T00:43:59.606Z,47.17
2022-08-07T00:46:32.902Z,47.28
2022-08-07T00:49:03.260Z,47.59
2022-08-07T00:51:58.378Z,47.45
2022-08-07T00:54:22.348Z,47.48
2022-08-07T00:56:51.495Z,46.93
2022-08-07T00:59:35.872Z,46.93
2022-08-07T01:02:08.844Z,47.29
2022-08-07T01:04:43.359Z,47.58
2022-08-07T01:07:12.925Z,47.45
2022-08-07T01:10:07.126Z,47.35
2022-08-07T01:12:31.346Z,47.22
2022-08-07T01:15:03.721Z,47.44
2022-08-07T01:17:32.996Z,48.31
2022-08-07T01:20:07.918Z,48.43
2022-08-07T01:22:46.881Z,48.19
2022-08-07T01:25:40.326Z,47.64
2022-08-07T01:28:15.730Z,48.78
2022-08-07T01:30:45.697Z,48.82
2022-08-07T01:33:16.620Z,48.79
2022-08-07T01:35:53.360Z,49.43
2022-08-07T01:38:29.082Z,49.54
2022-08-07T01:41:03.715Z,48.73
2022-08-07T01:43:38.192Z,48.66
2022-08-07T01:46:12.337Z,47.86
2022-08-07T01:48:46.602Z,47.69
2022-08-07T01:52:01.176Z,47.61
2022-08-07T01:54:36.304Z,47.75
2022-08-07T01:57:08.986Z,48.07
2022-08-07T01:59:55.925Z,47.41
2022-08-07T02:02:33.027Z,47.92
2022-08-07T02:05:43.373Z,48.94
2022-08-07T02:08:20.369Z,48.44
2022-08-07T02:10:58.121Z,48.37
2022-08-07T02:13:56.892Z,49.05
2022-08-07T02:16:28.799Z,49.82
2022-08-07T02:19:02.922Z,49.38
2022-08-07T02:21:56.554Z,49.65
2022-08-07T02:24:29.362Z,49.57
2022-08-07T02:27:01.643Z,49.37
2022-08-07T02:29:32.565Z,50.11
2022-08-07T02:32:05.427Z,49.67
2022-08-07T02:34:35.631Z,49.67
2022-08-07T02:37:19.948Z,49.64
2022-08-07T02:40:12.059Z,49.72
2022-08-07T02:42:39.994Z,50.02
2022-08-07T02:45:59.272Z,50.22
2022-08-07T02:48:01.716Z,50.63
2022-08-07T02:50:31.232Z,50.43
2022-08-07T02:53:06.166Z,50.04
2022-08-07T02:56:04.105Z,50.85
2022-08-07T02:58:33.245Z,51.53
2022-08-07T03:01:05.054Z,50.84
2022-08-07T03:03:50.153Z,51.11
2022-08-07T03:06:25.495Z,51.03
2022-08-07T03:08:55.295Z,51.32
2022-08-07T03:11:28.079Z,51.23
2022-08-07T03:14:01.823Z,51.28
2022-08-07T03:16:31.106Z,51.02
2022-08-07T03:19:00.311Z,51.20
2022-08-07T03:21:32.811Z,51.24
2022-08-07T03:24:19.629Z,51.41
2022-08-07T03:26:58.624Z,51.36
2022-08-07T03:29:33.939Z,51.61
2022-08-07T03:32:12.982Z,51.58
2022-08-07T03:35:01.057Z,51.76
2022-08-07T03:37:37.371Z,52.13
2022-08-07T03:40:16.854Z,52.29
2022-08-07T03:42:45.863Z,52.22
2022-08-07T03:45:29.987Z,52.28
2022-08-07T03:48:04.895Z,52.16
2022-08-07T03:50:39.178Z,52.52
2022-08-07T03:53:12.163Z,52.00
2022-08-07T03:55:57.656Z,51.90
2022-08-07T03:59:10.114Z,51.83
2022-08-07T04:01:25.557Z,52.86
2022-08-07T04:03:55.522Z,53.00
2022-08-07T04:06:38.449Z,52.91
2022-08-07T04:09:15.663Z,53.34
2022-08-07T04:12:21.231Z,53.12
2022-08-07T04:14:43.532Z,53.55
2022-08-07T04:18:56.817Z,53.42
2022-08-07T04:20:10.099Z,53.85
2022-08-07T04:22:40.996Z,53.72
2022-08-07T04:25:23.827Z,54.00
2022-08-07T04:28:00.301Z,53.83
2022-08-07T04:30:43.878Z,53.67
2022-08-07T04:33:25.420Z,52.96
2022-08-07T04:35:54.817Z,53.05
2022-08-07T04:38:27.713Z,53.16
2022-08-07T04:40:58.102Z,52.89
2022-08-07T04:44:12.023Z,52.59
2022-08-07T04:46:34.833Z,53.08
2022-08-07T04:49:25.477Z,53.18
2022-08-07T04:52:04.119Z,53.22
2022-08-07T04:54:37.147Z,53.71
2022-08-07T04:58:09.599Z,53.75
2022-08-07T05:00:17.276Z,53.54
2022-08-07T05:02:56.933Z,53.69
2022-08-07T05:05:54.144Z,53.74
2022-08-07T05:09:00.006Z,53.71
2022-08-07T05:11:24.315Z,52.88
2022-08-07T05:14:56.078Z,53.46
2022-08-07T05:16:54.014Z,53.26
2022-08-07T05:19:25.650Z,53.30
2022-08-07T05:22:05.727Z,53.36
2022-08-07T05:24:40.870Z,53.42
2022-08-07T05:27:18.454Z,53.15
2022-08-07T05:30:00.802Z,54.44
2022-08-07T05:32:29.755Z,54.25
2022-08-07T05:34:59.085Z,54.64
2022-08-07T05:37:28.697Z,55.18
2022-08-07T05:40:17.405Z,55.27
2022-08-07T05:42:55.948Z,55.30
2022-08-07T05:45:46.499Z,55.81
2022-08-07T05:48:16.606Z,55.90
2022-08-07T05:50:47.138Z,56.24
2022-08-07T05:54:09.295Z,56.35
2022-08-07T05:56:12.393Z,56.23
2022-08-07T05:58:52.446Z,56.78
2022-08-07T06:01:27.343Z,56.55
2022-08-07T06:04:05.506Z,56.71
2022-08-07T06:06:38.404Z,56.94
2022-08-07T06:09:18.685Z,56.86
2022-08-07T06:11:49.701Z,57.08
2022-08-07T06:14:28.498Z,56.90
2022-08-07T06:16:59.888Z,57.59
2022-08-07T06:19:58.038Z,56.88
2022-08-07T06:22:27.336Z,58.31
2022-08-07T06:25:10.176Z,58.91
2022-08-07T06:28:00.702Z,58.91
2022-08-07T06:30:35.648Z,60.39
2022-08-07T06:33:16.116Z,59.53
2022-08-07T06:36:06.786Z,60.24
2022-08-07T06:38:38.010Z,60.26
2022-08-07T06:41:12.935Z,60.01
2022-08-07T06:43:46.602Z,59.63
2022-08-07T06:46:31.324Z,59.27
2022-08-07T06:49:04.576Z,58.64
2022-08-07T06:51:43.441Z,58.50
2022-08-07T06:55:32.699Z,57.86
2022-08-07T06:57:13.511Z,57.50
2022-08-07T07:00:13.436Z,57.71
2022-08-07T07:02:48.326Z,57.45
2022-08-07T07:06:02.481Z,55.76
2022-08-07T07:08:07.213Z,56.22
2022-08-07T07:10:47.320Z,55.70
2022-08-07T07:13:55.536Z,54.88
2022-08-07T07:16:12.703Z,54.18
2022-08-07T07:18:51.212Z,53.23
2022-08-07T07:21:27.226Z,53.20
2022-08-07T07:24:12.602Z,53.30
2022-08-07T07:26:49.594Z,52.95
2022-08-07T07:29:39.049Z,51.03
2022-08-07T07:32:10.777Z,50.87
2022-08-07T07:34:44.871Z,50.76
2022-08-07T07:37:45.115Z,50.62
2022-08-07T07:40:14.787Z,50.53
2022-08-07T07:42:50.869Z,50.05
2022-08-07T07:46:37.921Z,48.43
2022-08-07T07:48:35.246Z,47.68
2022-08-07T07:51:08.071Z,48.08
2022-08-07T07:53:51.238Z,48.11
2022-08-07T07:56:30.435Z,47.94
2022-08-07T07:59:01.512Z,47.27
2022-08-07T08:02:02.576Z,46.78
2022-08-07T08:04:25.946Z,46.36
2022-08-07T08:06:57.101Z,46.25
2022-08-07T08:09:32.884Z,46.51
2022-08-07T08:12:50.087Z,45.78
2022-08-07T08:15:10.654Z,45.25
2022-08-07T08:17:58.294Z,45.53
2022-08-07T08:20:31.804Z,45.09
2022-08-07T08:23:18.878Z,45.04
2022-08-07T08:26:23.494Z,43.81
2022-08-07T08:28:57.068Z,43.94
2022-08-07T08:31:59.050Z,43.90
2022-08-07T08:34:26.787Z,43.72
2022-08-07T08:36:58.446Z,43.92
2022-08-07T08:39:39.587Z,42.95
2022-08-07T08:42:25.791Z,43.07
2022-08-07T08:45:04.866Z,43.12
2022-08-07T08:47:52.053Z,42.75
2022-08-07T08:50:34.760Z,42.18
2022-08-07T08:53:19.165Z,41.75
2022-08-07T08:55:54.730Z,41.74
2022-08-07T08:58:35.119Z,40.00
2022-08-07T09:01:15.275Z,40.78
2022-08-07T09:03:55.269Z,40.64
2022-08-07T09:06:42.685Z,40.94
2022-08-07T09:09:30.028Z,40.34
2022-08-07T09:12:31.361Z,40.49
2022-08-07T09:16:22.815Z,40.66
2022-08-07T09:18:24.316Z,41.26
2022-08-07T09:21:33.921Z,40.81
2022-08-07T09:24:28.433Z,39.63
2022-08-07T09:27:22.402Z,40.38
2022-08-07T09:30:04.470Z,40.75
2022-08-07T09:32:56.807Z,39.54
2022-08-07T09:36:03.159Z,38.73
2022-08-07T09:38:32.402Z,39.29
2022-08-07T09:41:15.512Z,38.74
2022-08-07T09:44:06.115Z,37.07
2022-08-07T09:47:50.519Z,37.66
2022-08-07T09:50:03.008Z,36.06
2022-08-07T09:52:51.544Z,36.84
2022-08-07T09:55:29.417Z,35.79
2022-08-07T09:58:43.434Z,36.17
2022-08-07T10:01:51.326Z,33.93
2022-08-07T10:04:57.158Z,34.04
2022-08-07T10:07:52.886Z,34.11
2022-08-07T10:11:07.716Z,33.82
2022-08-07T10:14:00.199Z,34.25
2022-08-07T10:17:01.787Z,35.11
2022-08-07T10:19:47.589Z,34.81
2022-08-07T10:22:46.083Z,35.06
2022-08-07T10:25:43.210Z,34.68
2022-08-07T10:28:39.143Z,33.93
2022-08-07T10:31:23.079Z,34.14
2022-08-07T10:34:15.506Z,33.25
2022-08-07T10:37:03.954Z,32.69
2022-08-07T10:39:57.638Z,33.47
2022-08-07T10:42:39.700Z,32.47
2022-08-07T10:45:19.363Z,32.96
2022-08-07T10:48:17.508Z,32.02
2022-08-07T10:50:51.730Z,32.09
2022-08-07T10:53:44.368Z,31.96
2022-08-07T10:56:30.807Z,31.10
2022-08-07T10:59:10.861Z,30.40
2022-08-07T11:01:51.563Z,30.44
2022-08-07T11:04:53.240Z,29.12
2022-08-07T11:07:59.106Z,30.18
2022-08-07T11:10:35.252Z,30.42
2022-08-07T11:14:42.090Z,31.26
2022-08-07T11:16:07.444Z,30.56
2022-08-07T11:18:41.371Z,30.93
2022-08-07T11:21:16.963Z,30.52
2022-08-07T11:23:55.441Z,30.63
2022-08-07T11:26:32.474Z,31.30
2022-08-07T11:29:13.240Z,31.05
2022-08-07T11:32:02.242Z,31.19
2022-08-07T11:34:37.748Z,31.81
2022-08-07T11:37:19.568Z,30.92
2022-08-07T11:40:04.493Z,31.00
2022-08-07T11:42:47.726Z,31.62
2022-08-07T11:45:36.471Z,30.98
2022-08-07T11:48:32.771Z,31.63
2022-08-07T11:51:40.815Z,29.81
2022-08-07T11:54:25.683Z,30.50
2022-08-07T11:57:12.584Z,31.23
2022-08-07T12:00:10.897Z,31.62
2022-08-07T12:02:57.971Z,31.93
2022-08-07T12:05:49.186Z,31.52
2022-08-07T12:08:29.510Z,31.41
2022-08-07T12:11:20.548Z,31.16
2022-08-07T12:13:55.226Z,31.04
2022-08-07T12:16:42.193Z,31.25
2022-08-07T12:19:21.577Z,31.34
2022-08-07T12:22:39.197Z,31.26
2022-08-07T12:26:00.343Z,31.36
2022-08-07T12:28:08.945Z,30.85
2022-08-07T12:30:46.969Z,31.68
2022-08-07T12:33:30.728Z,31.22
2022-08-07T12:36:15.094Z,32.01
2022-08-07T12:38:57.068Z,31.62
2022-08-07T12:41:29.086Z,31.49
2022-08-07T12:44:17.380Z,31.29
2022-08-07T12:47:01.637Z,31.93
2022-08-07T12:49:51.579Z,31.61
2022-08-07T12:52:36.497Z,31.29
2022-08-07T12:55:17.708Z,31.80
2022-08-07T12:58:01.050Z,31.63
2022-08-07T13:00:50.054Z,31.48
2022-08-07T13:04:02.765Z,31.38
2022-08-07T13:08:11.647Z,31.76
2022-08-07T13:10:39.418Z,31.38
2022-08-07T13:13:47.595Z,31.65
2022-08-07T13:16:17.256Z,32.00
2022-08-07T13:18:54.754Z,30.94
2022-08-07T13:21:37.279Z,31.49
2022-08-07T13:24:25.577Z,31.47
2022-08-07T13:27:02.790Z,31.10
2022-08-07T13:29:42.562Z,31.37
2022-08-07T13:32:31.333Z,32.27
2022-08-07T13:35:09.221Z,31.21
2022-08-07T13:37:47.312Z,30.70
2022-08-07T13:40:36.606Z,31.29
2022-08-07T13:43:15.163Z,30.87
2022-08-07T13:46:12.156Z,31.10
2022-08-07T13:48:38.447Z,31.17
2022-08-07T13:51:28.030Z,31.21
2022-08-07T13:54:01.968Z,30.95
2022-08-07T13:56:35.755Z,30.64
2022-08-07T13:59:13.815Z,30.71
2022-08-07T14:01:51.072Z,30.83
2022-08-07T14:04:35.330Z,30.96
2022-08-07T14:07:09.410Z,30.69
2022-08-07T14:10:02.722Z,31.47
2022-08-07T14:12:36.042Z,31.04
2022-08-07T14:15:18.819Z,30.52
2022-08-07T14:18:15.711Z,31.23
2022-08-07T14:20:48.865Z,31.01
2022-08-07T14:23:31.322Z,31.11
2022-08-07T14:26:29.981Z,30.77
2022-08-07T14:30:04.765Z,30.74
2022-08-07T14:31:56.491Z,31.38
2022-08-07T14:34:30.734Z,31.36
2022-08-07T14:37:02.044Z,31.24
2022-08-07T14:40:16.725Z,30.78
2022-08-07T14:42:32.663Z,30.68
2022-08-07T14:45:21.780Z,30.87
2022-08-07T14:47:58.533Z,31.21
2022-08-07T14:50:44.266Z,30.94
2022-08-07T14:56:07.053Z,30.68
2022-08-07T14:58:44.111Z,30.53
2022-08-07T15:04:05.901Z,30.77
2022-08-07T15:06:36.506Z,30.98
2022-08-07T15:10:00.085Z,29.99
2022-08-07T15:12:02.665Z,30.59
2022-08-07T15:14:56.003Z,29.95
2022-08-07T15:17:32.508Z,29.81
2022-08-07T15:23:20.164Z,29.80
2022-08-07T15:25:54.704Z,30.96
2022-08-07T15:28:34.389Z,30.49
2022-08-07T15:31:07.479Z,30.53
2022-08-07T15:33:42.663Z,30.44
2022-08-07T15:36:12.783Z,30.25
2022-08-07T15:42:46.438Z,29.86
2022-08-07T15:44:24.283Z,29.15
2022-08-07T15:46:58.736Z,29.24
2022-08-07T15:50:05.326Z,29.51
2022-08-07T15:52:30.231Z,30.02
2022-08-07T15:55:02.404Z,30.01
2022-08-07T15:57:47.771Z,29.62
2022-08-07T16:00:22.762Z,28.90
2022-08-07T16:03:02.388Z,28.71
2022-08-07T16:05:32.144Z,28.62
2022-08-07T16:08:31.123Z,28.48
2022-08-07T16:11:00.936Z,28.58
2022-08-07T16:14:03.278Z,28.65
2022-08-07T16:16:49.966Z,29.07
2022-08-07T16:20:04.717Z,28.78
2022-08-07T16:22:54.915Z,28.78
2022-08-07T16:25:52.341Z,28.68
2022-08-07T16:30:08.641Z,28.88
2022-08-07T16:31:51.708Z,28.82
2022-08-07T16:34:33.946Z,28.87
2022-08-07T16:38:06.342Z,28.65
2022-08-07T16:41:22.371Z,28.58
2022-08-07T16:44:46.350Z,28.82
2022-08-07T16:47:52.938Z,29.04
2022-08-07T16:50:39.348Z,28.99
2022-08-07T16:54:01.712Z,28.86
2022-08-07T16:56:37.677Z,29.08
2022-08-07T16:59:17.699Z,29.19
2022-08-07T17:02:03.192Z,29.33
2022-08-07T17:04:58.516Z,28.89
2022-08-07T17:07:55.826Z,29.04
2022-08-07T17:10:33.235Z,29.85
2022-08-07T17:13:25.388Z,29.21
2022-08-07T17:16:16.368Z,29.52
2022-08-07T17:18:50.326Z,29.20
2022-08-07T17:21:23.082Z,29.47
2022-08-07T17:24:23.764Z,30.03
2022-08-07T17:27:01.393Z,29.68
2022-08-07T17:30:14.763Z,30.01
2022-08-07T17:32:52.055Z,29.97
2022-08-07T17:35:51.468Z,29.84
2022-08-07T17:38:33.023Z,30.09
2022-08-07T17:41:12.509Z,30.05
2022-08-07T17:44:05.868Z,29.97
2022-08-07T17:46:41.773Z,30.05
2022-08-07T17:49:23.150Z,30.05
2022-08-07T17:52:00.530Z,30.55
2022-08-07T17:54:53.569Z,30.57
2022-08-07T17:57:56.061Z,30.39
2022-08-07T18:00:33.293Z,30.81
2022-08-07T18:03:18.298Z,29.74
2022-08-07T18:06:01.633Z,29.78
2022-08-07T18:08:33.832Z,30.24
2022-08-07T18:12:07.255Z,30.41
2022-08-07T18:14:10.167Z,30.36
2022-08-07T18:16:57.874Z,30.44
2022-08-07T18:21:12.557Z,30.71
2022-08-07T18:22:36.400Z,30.97
2022-08-07T18:25:24.322Z,30.80
2022-08-07T18:28:34.542Z,30.69
2022-08-07T18:31:07.555Z,30.65
2022-08-07T18:34:35.826Z,30.81
2022-08-07T18:37:15.100Z,30.77
2022-08-07T18:40:42.943Z,30.89
2022-08-07T18:43:15.112Z,30.37
2022-08-07T18:46:24.340Z,30.40
2022-08-07T18:50:19.206Z,30.18
2022-08-07T18:52:25.415Z,30.62
2022-08-07T18:54:49.807Z,30.67
2022-08-07T18:57:31.462Z,30.74
2022-08-07T19:00:33.441Z,30.75
2022-08-07T19:03:12.034Z,31.20
2022-08-07T19:06:04.142Z,31.36
2022-08-07T19:08:46.551Z,32.04
2022-08-07T19:11:36.285Z,32.03
2022-08-07T19:14:20.030Z,32.22
2022-08-07T19:17:04.585Z,32.47
2022-08-07T19:19:48.745Z,33.05
2022-08-07T19:22:30.273Z,32.89
2022-08-07T19:25:05.739Z,32.60
2022-08-07T19:30:56.702Z,32.73
2022-08-07T19:31:02.942Z,33.06
2022-08-07T19:33:33.229Z,33.18
2022-08-07T19:36:02.931Z,32.82
2022-08-07T19:38:36.193Z,33.30
2022-08-07T19:41:45.000Z,33.53
2022-08-07T19:44:21.116Z,33.39
2022-08-07T19:46:57.811Z,33.89
2022-08-07T19:49:57.417Z,33.52
2022-08-07T19:52:22.494Z,34.20
2022-08-07T19:54:56.600Z,34.17
2022-08-07T19:58:04.684Z,34.52
2022-08-07T20:00:28.944Z,34.27
2022-08-07T20:03:02.834Z,34.58
2022-08-07T20:06:00.085Z,33.86
2022-08-07T20:08:24.666Z,34.33
2022-08-07T20:11:01.853Z,33.90
2022-08-07T20:13:43.182Z,33.47
2022-08-07T20:16:15.739Z,33.58
2022-08-07T20:19:05.432Z,33.87
2022-08-07T20:21:46.655Z,33.74
2022-08-07T20:24:20.377Z,33.87
2022-08-07T20:26:54.908Z,33.97
2022-08-07T20:29:49.465Z,34.09
2022-08-07T20:32:23.201Z,34.08
2022-08-07T20:34:57.268Z,34.06
2022-08-07T20:37:32.206Z,34.08
2022-08-07T20:40:31.452Z,34.30
2022-08-07T20:42:57.969Z,34.48
2022-08-07T20:45:33.809Z,34.64
2022-08-07T20:48:28.588Z,35.00
2022-08-07T20:50:58.429Z,34.59
2022-08-07T20:54:02.048Z,34.60
2022-08-07T20:56:16.673Z,34.49
2022-08-07T20:59:00.009Z,34.90
2022-08-07T21:01:45.412Z,35.33
2022-08-07T21:04:23.624Z,35.72
2022-08-07T21:06:56.949Z,37.26
2022-08-07T21:09:51.646Z,36.75
2022-08-07T21:12:25.976Z,36.39
2022-08-07T21:15:03.938Z,36.92
2022-08-07T21:18:01.877Z,37.22
2022-08-07T21:20:30.321Z,37.21
2022-08-07T21:23:07.693Z,38.33
2022-08-07T21:25:56.575Z,38.39
2022-08-07T21:28:48.960Z,38.54
2022-08-07T21:31:49.987Z,39.14
2022-08-07T21:34:26.653Z,39.57
2022-08-07T21:37:03.883Z,40.44
2022-08-07T21:39:47.691Z,40.63
2022-08-07T21:42:49.304Z,40.32
2022-08-07T21:46:09.455Z,40.97
2022-08-07T21:48:28.706Z,41.00
2022-08-07T21:51:19.388Z,40.48
2022-08-07T21:53:53.516Z,41.06
2022-08-07T21:56:37.793Z,41.72
2022-08-07T21:59:14.157Z,42.60
2022-08-07T22:02:10.971Z,41.86
2022-08-07T22:04:52.650Z,41.94
2022-08-07T22:07:31.641Z,43.15
2022-08-07T22:10:18.256Z,42.12
2022-08-07T22:12:53.667Z,42.59
2022-08-07T22:16:39.950Z,42.71
2022-08-07T22:18:25.286Z,43.06
2022-08-07T22:20:59.647Z,43.10
2022-08-07T22:23:40.502Z,43.33
2022-08-07T22:26:18.511Z,44.24
2022-08-07T22:28:54.297Z,43.50
2022-08-07T22:31:56.060Z,43.30
2022-08-07T22:34:28.589Z,42.79
2022-08-07T22:37:19.172Z,42.74
2022-08-07T22:39:54.019Z,43.20
2022-08-07T22:42:25.891Z,43.38
2022-08-07T22:44:59.976Z,43.51
2022-08-07T22:47:52.454Z,43.63
2022-08-07T22:50:37.009Z,43.51
2022-08-07T22:54:05.048Z,43.83
2022-08-07T22:56:24.152Z,44.27
2022-08-07T22:59:28.387Z,43.61
2022-08-07T23:02:08.697Z,43.79
2022-08-07T23:04:58.632Z,43.96
2022-08-07T23:07:53.620Z,44.61
2022-08-07T23:10:42.184Z,45.15
2022-08-07T23:13:48.665Z,45.98
2022-08-07T23:16:54.581Z,46.06
2022-08-07T23:19:58.534Z,46.27
2022-08-07T23:22:40.399Z,46.62
2022-08-07T23:25:20.822Z,46.97
2022-08-07T23:28:22.209Z,47.12
2022-08-07T23:31:42.624Z,47.07
2022-08-07T23:34:34.013Z,47.14
2022-08-07T23:37:22.646Z,47.03
2022-08-07T23:40:07.549Z,46.88
2022-08-07T23:42:53.393Z,46.70
2022-08-07T23:46:01.635Z,46.11
2022-08-07T23:48:43.922Z,46.39
2022-08-07T23:53:00.113Z,46.64
2022-08-07T23:54:36.177Z,46.68
2022-08-07T23:57:18.570Z,48.14
